createdAt,value
2023-02-19T00:03:20.308Z,993.7
2023-02-19T00:08:39.348Z,993.7
2023-02-19T00:13:58.970Z,993.7
2023-02-19T00:19:18.615Z,993.8
2023-02-19T00:24:37.687Z,993.6
2023-02-19T00:29:57.118Z,993.6
2023-02-19T00:35:16.485Z,993.5
2023-02-19T00:41:50.631Z,993.5
2023-02-19T00:45:56.421Z,993.3
2023-02-19T00:51:14.246Z,993.2
2023-02-19T00:56:33.214Z,993.3
2023-02-19T01:01:51.538Z,993.2
2023-02-19T01:07:10.888Z,993.2
2023-02-19T01:12:30.320Z,993.3
2023-02-19T01:17:49.659Z,993.2
2023-02-19T01:23:08.619Z,992.9
2023-02-19T01:28:27.719Z,992.8
2023-02-19T01:33:46.541Z,992.9
2023-02-19T01:39:05.774Z,992.9
2023-02-19T01:44:24.459Z,992.8
2023-02-19T01:49:44.315Z,992.8
2023-02-19T01:55:04.043Z,992.8
2023-02-19T02:00:22.981Z,992.7
2023-02-19T02:05:42.971Z,992.6
2023-02-19T02:11:02.624Z,992.5
2023-02-19T02:16:21.960Z,992.5
2023-02-19T02:21:41.443Z,992.5
2023-02-19T02:27:00.248Z,992.5
2023-02-19T02:32:19.683Z,992.5
2023-02-19T02:37:39.151Z,992.5
2023-02-19T02:42:58.850Z,992.4
2023-02-19T02:48:17.824Z,992.4
2023-02-19T02:53:37.122Z,992.3
2023-02-19T02:58:56.057Z,992.3
2023-02-19T03:04:15.752Z,992.2
2023-02-19T03:09:34.563Z,992.2
2023-02-19T03:14:53.981Z,992.3
2023-02-19T03:20:12.921Z,992.2
2023-02-19T03:20:37.497Z,992.2
2023-02-19T03:25:56.998Z,992.2
2023-02-19T03:31:16.599Z,992.2
2023-02-19T03:36:36.039Z,992.2
2023-02-19T03:41:55.632Z,992.2
2023-02-19T03:47:14.622Z,992.2
2023-02-19T03:52:33.577Z,992.4
2023-02-19T03:57:52.953Z,992.5
2023-02-19T04:03:12.314Z,992.3
2023-02-19T04:08:31.249Z,992.3
2023-02-19T04:13:50.318Z,992.2
2023-02-19T04:19:10.094Z,992.3
2023-02-19T04:24:30.143Z,992.3
2023-02-19T04:29:50.580Z,992.5
2023-02-19T04:35:09.489Z,992.5
2023-02-19T04:40:28.795Z,992.4
2023-02-19T04:45:47.310Z,992.5
2023-02-19T04:51:06.539Z,992.5
2023-02-19T04:56:25.925Z,992.5
2023-02-19T05:01:44.716Z,992.4
2023-02-19T05:07:03.988Z,992.2
2023-02-19T05:12:23.445Z,992.2
2023-02-19T05:17:42.234Z,992.2
2023-02-19T05:23:01.807Z,992.2
2023-02-19T05:28:20.906Z,992.3
2023-02-19T05:33:39.866Z,992.3
2023-02-19T05:38:58.955Z,992.4
2023-02-19T05:44:18.551Z,992.5
2023-02-19T05:49:37.548Z,992.6
2023-02-19T05:54:56.610Z,992.5
2023-02-19T06:00:15.400Z,992.6
2023-02-19T06:05:34.833Z,992.6
2023-02-19T06:11:02.070Z,992.6
2023-02-19T06:16:13.543Z,992.7
2023-02-19T06:21:32.398Z,992.7
2023-02-19T06:26:51.699Z,992.9
2023-02-19T06:32:10.661Z,992.9
2023-02-19T06:37:30.189Z,993
2023-02-19T06:42:49.836Z,993.1
2023-02-19T06:48:09.559Z,993.2
2023-02-19T06:53:28.883Z,993.2
2023-02-19T06:58:48.124Z,993.4
2023-02-19T07:04:07.367Z,993.4
2023-02-19T07:09:26.983Z,993.5
2023-02-19T07:14:45.473Z,993.6
2023-02-19T07:20:04.941Z,993.5
2023-02-19T07:25:24.049Z,993.5
2023-02-19T07:30:43.570Z,993.7
2023-02-19T07:36:03.152Z,993.8
2023-02-19T07:41:22.875Z,993.7
2023-02-19T07:46:42.357Z,993.8
2023-02-19T07:52:02.048Z,993.9
2023-02-19T07:57:21.330Z,994
2023-02-19T08:02:40.844Z,993.9
2023-02-19T08:08:00.512Z,993.9
2023-02-19T08:13:20.313Z,993.7
2023-02-19T08:18:39.307Z,994
2023-02-19T08:23:58.551Z,994.2
2023-02-19T08:29:18.099Z,994.3
2023-02-19T08:34:37.756Z,994.5
2023-02-19T08:39:57.375Z,994.4
2023-02-19T08:45:16.328Z,994.4
2023-02-19T08:50:36.017Z,994.5
2023-02-19T08:55:55.289Z,994.5
2023-02-19T09:01:14.703Z,994.7
2023-02-19T09:06:34.214Z,994.8
2023-02-19T09:11:52.513Z,995
2023-02-19T09:17:11.508Z,995.1
2023-02-19T09:22:31.943Z,995.1
2023-02-19T09:27:50.403Z,995
2023-02-19T09:33:09.954Z,995.2
2023-02-19T09:38:30.101Z,995.1
2023-02-19T09:43:49.165Z,995.2
2023-02-19T09:49:08.389Z,995.2
2023-02-19T09:54:27.809Z,995.2
2023-02-19T09:59:46.699Z,995.1
2023-02-19T10:05:06.436Z,995.1
2023-02-19T10:10:25.841Z,995.1
2023-02-19T10:15:45.181Z,995.1
2023-02-19T10:21:04.679Z,995.1
2023-02-19T10:26:24.632Z,995.2
2023-02-19T10:31:43.699Z,995.2
2023-02-19T10:37:01.828Z,995.6
2023-02-19T10:42:20.801Z,995.7
2023-02-19T10:47:40.059Z,995.7
2023-02-19T10:52:59.666Z,995.7
2023-02-19T10:58:18.571Z,995.8
2023-02-19T11:03:38.265Z,995.8
2023-02-19T11:08:57.964Z,995.9
2023-02-19T11:14:17.475Z,995.8
2023-02-19T11:19:36.429Z,995.8
2023-02-19T11:24:57.872Z,995.9
2023-02-19T11:30:14.572Z,995.9
2023-02-19T11:35:34.247Z,996
2023-02-19T11:40:53.730Z,995.9
2023-02-19T11:46:13.361Z,996.1
2023-02-19T11:51:32.127Z,995.9
2023-02-19T11:56:51.336Z,996.1
2023-02-19T12:02:10.966Z,996
2023-02-19T12:07:29.627Z,996
2023-02-19T12:12:48.963Z,996.1
2023-02-19T12:18:07.735Z,995.9
2023-02-19T12:23:26.665Z,995.9
2023-02-19T12:28:46.110Z,995.9
2023-02-19T12:34:04.641Z,995.8
2023-02-19T12:39:24.465Z,995.8
2023-02-19T12:44:44.002Z,995.7
2023-02-19T12:50:02.942Z,995.8
2023-02-19T12:55:21.692Z,995.9
2023-02-19T13:00:40.561Z,996.1
2023-02-19T13:06:00.218Z,996
2023-02-19T13:11:19.108Z,996
2023-02-19T13:16:38.492Z,996.2
2023-02-19T13:21:56.935Z,996.1
2023-02-19T13:27:16.094Z,996
2023-02-19T13:32:34.935Z,995.9
2023-02-19T13:37:54.572Z,996
2023-02-19T13:43:14.016Z,996
2023-02-19T13:48:33.688Z,996
2023-02-19T13:53:52.800Z,996.2
2023-02-19T13:59:11.929Z,996.2
2023-02-19T14:04:30.938Z,996.3
2023-02-19T14:09:49.856Z,996.3
2023-02-19T14:15:09.134Z,996.5
2023-02-19T14:20:28.092Z,996.4
2023-02-19T14:25:47.821Z,996.3
2023-02-19T14:31:06.905Z,996.3
2023-02-19T14:36:25.843Z,996.4
2023-02-19T14:41:45.593Z,996.5
2023-02-19T14:47:05.013Z,996.5
2023-02-19T14:52:24.644Z,996.6
2023-02-19T14:57:43.900Z,996.6
2023-02-19T15:03:03.659Z,996.6
2023-02-19T15:08:21.954Z,996.6
2023-02-19T15:13:41.556Z,996.6
2023-02-19T15:19:01.126Z,996.5
2023-02-19T15:24:20.057Z,996.5
2023-02-19T15:29:39.122Z,996.5
2023-02-19T15:34:58.822Z,996.6
2023-02-19T15:40:17.874Z,996.6
2023-02-19T15:45:36.714Z,996.8
2023-02-19T15:50:56.273Z,996.8
2023-02-19T15:56:15.600Z,996.8
2023-02-19T16:01:34.636Z,996.9
2023-02-19T16:06:54.240Z,996.8
2023-02-19T16:12:13.284Z,996.9
2023-02-19T16:17:32.148Z,996.9
2023-02-19T16:22:51.732Z,997
2023-02-19T16:28:11.232Z,996.9
2023-02-19T16:33:30.378Z,996.9
2023-02-19T16:38:49.556Z,997
2023-02-19T16:44:08.716Z,997.1
2023-02-19T16:49:27.917Z,997
2023-02-19T17:00:06.371Z,997.1
2023-02-19T17:05:25.945Z,997.2
2023-02-19T17:10:45.045Z,997.3
2023-02-19T17:16:04.333Z,997.4
2023-02-19T17:21:23.894Z,997.5
2023-02-19T17:26:43.630Z,997.5
2023-02-19T17:32:03.073Z,997.7
2023-02-19T17:37:22.309Z,997.7
2023-02-19T17:42:41.272Z,997.9
2023-02-19T17:48:00.635Z,998
2023-02-19T17:53:19.722Z,998.1
2023-02-19T17:58:38.573Z,998.1
2023-02-19T18:03:57.366Z,998.2
2023-02-19T18:09:17.504Z,998.2
2023-02-19T18:14:36.235Z,998.3
2023-02-19T18:19:55.545Z,998.4
2023-02-19T18:25:14.619Z,998.4
2023-02-19T18:30:33.712Z,998.5
2023-02-19T18:35:52.649Z,998.6
2023-02-19T18:41:11.894Z,998.6
2023-02-19T18:46:32.275Z,998.7
2023-02-19T18:51:50.640Z,998.7
2023-02-19T18:57:10.805Z,998.6
2023-02-19T19:02:33.804Z,998.7
2023-02-19T19:07:48.949Z,998.7
2023-02-19T19:13:08.193Z,998.7
2023-02-19T19:18:28.637Z,998.8
2023-02-19T19:23:47.109Z,998.6
2023-02-19T19:29:06.482Z,998.7
2023-02-19T19:34:25.556Z,998.7
2023-02-19T19:39:44.987Z,998.8
2023-02-19T19:45:03.870Z,998.9
2023-02-19T19:50:22.905Z,998.8
2023-02-19T19:55:42.563Z,998.9
2023-02-19T20:01:01.875Z,998.9
2023-02-19T20:06:20.595Z,999
2023-02-19T20:11:39.442Z,999.1
2023-02-19T20:16:58.651Z,999
2023-02-19T20:22:17.937Z,999
2023-02-19T20:27:37.610Z,999
2023-02-19T20:32:57.254Z,999
2023-02-19T20:38:16.704Z,999.1
2023-02-19T20:43:35.933Z,999.1
2023-02-19T20:48:55.091Z,999.1
2023-02-19T20:54:14.602Z,999.2
2023-02-19T20:59:33.898Z,999.1
2023-02-19T21:04:53.378Z,999.2
2023-02-19T21:05:17.711Z,999.3
2023-02-19T21:10:37.419Z,999.3
2023-02-19T21:15:56.348Z,999.3
2023-02-19T21:21:15.713Z,999.4
2023-02-19T21:26:34.999Z,999.4
2023-02-19T21:31:53.905Z,999.3
2023-02-19T21:37:13.365Z,999.2
2023-02-19T21:42:32.176Z,999.2
2023-02-19T21:47:51.868Z,999.2
2023-02-19T21:53:11.045Z,999.2
2023-02-19T21:58:29.848Z,999.3
2023-02-19T22:03:49.542Z,999.4
2023-02-19T22:09:08.271Z,999.4
2023-02-19T22:14:28.012Z,999.4
2023-02-19T22:19:47.819Z,999.4
2023-02-19T22:25:07.356Z,999.4
2023-02-19T22:30:26.468Z,999.5
2023-02-19T22:35:45.852Z,999.6
2023-02-19T22:41:04.701Z,999.7
2023-02-19T22:46:23.995Z,999.8
2023-02-19T22:51:43.157Z,999.7
2023-02-19T22:57:03.007Z,999.7
2023-02-19T23:02:21.095Z,999.6
2023-02-19T23:07:40.360Z,999.7
2023-02-19T23:12:59.115Z,999.7
2023-02-19T23:18:18.465Z,999.7
2023-02-19T23:23:37.632Z,999.7
2023-02-19T23:28:56.804Z,999.7
2023-02-19T23:34:16.602Z,999.5
2023-02-19T23:39:35.473Z,999.4
2023-02-19T23:44:54.180Z,999.5
2023-02-19T23:50:13.775Z,999.5
2023-02-19T23:55:33.253Z,999.5
